createdAt,value
2017-12-20T00:01:54.805Z,20.37
2017-12-20T00:04:23.712Z,20.50
2017-12-20T00:06:51.807Z,20.23
2017-12-20T00:09:19.975Z,19.70
2017-12-20T00:11:48.057Z,20.70
2017-12-20T00:14:16.145Z,18.80
2017-12-20T00:16:44.224Z,21.02
2017-12-20T00:19:13.317Z,19.98
2017-12-20T00:21:42.168Z,22.60
2017-12-20T00:24:10.289Z,19.37
2017-12-20T00:26:38.355Z,20.30
2017-12-20T00:29:07.211Z,19.00
2017-12-20T00:31:35.303Z,18.73
2017-12-20T00:34:03.388Z,18.70
2017-12-20T00:36:32.248Z,18.20
2017-12-20T00:39:00.331Z,19.20
2017-12-20T00:41:29.183Z,19.58
2017-12-20T00:43:57.333Z,19.12
2017-12-20T00:46:25.419Z,18.35
2017-12-20T00:48:53.513Z,18.33
2017-12-20T00:51:21.616Z,18.50
2017-12-20T00:53:49.885Z,18.65
2017-12-20T00:56:18.032Z,20.80
2017-12-20T00:58:46.112Z,18.55
2017-12-20T01:01:14.206Z,19.48
2017-12-20T01:03:42.299Z,19.55
2017-12-20T01:06:10.390Z,18.70
2017-12-20T01:08:38.479Z,18.55
2017-12-20T01:11:06.572Z,19.75
2017-12-20T01:13:35.415Z,16.60
2017-12-20T01:16:03.499Z,17.73
2017-12-20T01:18:31.578Z,16.80
2017-12-20T01:20:59.659Z,17.15
2017-12-20T01:23:27.746Z,16.95
2017-12-20T01:25:56.622Z,17.10
2017-12-20T01:28:24.722Z,16.35
2017-12-20T01:30:52.810Z,15.88
2017-12-20T01:33:20.899Z,15.73
2017-12-20T01:35:48.974Z,15.70
2017-12-20T01:38:17.064Z,14.93
2017-12-20T01:40:46.768Z,14.30
2017-12-20T01:43:14.935Z,14.30
2017-12-20T01:45:43.023Z,16.50
2017-12-20T01:48:12.004Z,12.75
2017-12-20T01:50:40.095Z,11.95
2017-12-20T01:53:08.955Z,13.70
2017-12-20T01:55:37.040Z,13.10
2017-12-20T01:58:05.147Z,12.95
2017-12-20T02:00:33.357Z,11.23
2017-12-20T02:03:01.652Z,12.25
2017-12-20T02:05:29.752Z,11.80
2017-12-20T02:07:58.604Z,11.85
2017-12-20T02:10:26.693Z,11.63
2017-12-20T02:12:55.551Z,11.63
2017-12-20T02:15:23.645Z,10.75
2017-12-20T02:17:51.715Z,10.98
2017-12-20T02:20:21.590Z,12.02
2017-12-20T02:22:49.684Z,10.57
2017-12-20T02:25:17.780Z,10.55
2017-12-20T02:27:46.651Z,13.02
2017-12-20T02:30:14.736Z,11.90
2017-12-20T02:32:43.582Z,10.73
2017-12-20T02:35:11.682Z,10.45
2017-12-20T02:37:39.759Z,11.30
2017-12-20T02:40:08.688Z,10.57
2017-12-20T02:42:36.782Z,10.35
2017-12-20T02:45:04.867Z,9.38
2017-12-20T02:47:33.040Z,10.60
2017-12-20T02:50:01.068Z,8.80
2017-12-20T02:52:29.153Z,8.52
2017-12-20T02:54:57.243Z,9.95
2017-12-20T02:57:25.318Z,9.85
2017-12-20T02:59:53.926Z,11.35
2017-12-20T03:02:22.092Z,10.40
2017-12-20T03:04:50.199Z,8.95
2017-12-20T03:07:18.319Z,8.63
2017-12-20T03:09:46.408Z,9.48
2017-12-20T03:12:15.269Z,9.80
2017-12-20T03:14:43.349Z,8.00
2017-12-20T03:17:11.424Z,9.18
2017-12-20T03:19:39.543Z,9.77
2017-12-20T03:22:07.662Z,8.10
2017-12-20T03:24:35.760Z,7.87
2017-12-20T03:27:04.011Z,7.80
2017-12-20T03:29:32.102Z,7.82
2017-12-20T03:32:00.939Z,7.90
2017-12-20T03:34:29.034Z,8.00
2017-12-20T03:36:57.116Z,7.80
2017-12-20T03:39:25.194Z,7.25
2017-12-20T03:41:55.035Z,7.72
2017-12-20T03:44:23.113Z,8.18
2017-12-20T03:46:51.204Z,7.10
2017-12-20T03:49:19.295Z,7.10
2017-12-20T03:51:47.363Z,6.32
2017-12-20T03:54:15.543Z,6.80
2017-12-20T03:56:43.631Z,7.35
2017-12-20T03:59:11.716Z,7.82
2017-12-20T04:01:39.798Z,6.82
2017-12-20T04:04:07.888Z,7.18
2017-12-20T04:06:35.988Z,8.68
2017-12-20T04:09:04.074Z,10.13
2017-12-20T04:11:33.054Z,9.45
2017-12-20T04:14:01.249Z,19.98
2017-12-20T04:16:30.110Z,21.80
2017-12-20T04:18:58.180Z,8.70
2017-12-20T04:21:26.270Z,7.15
2017-12-20T04:23:54.357Z,6.07
2017-12-20T04:26:23.213Z,8.50
2017-12-20T04:28:51.382Z,5.32
2017-12-20T04:31:21.098Z,5.50
2017-12-20T04:33:49.179Z,6.28
2017-12-20T04:36:18.023Z,5.45
2017-12-20T04:38:46.113Z,6.05
2017-12-20T04:41:14.186Z,6.15
2017-12-20T04:43:42.271Z,5.45
2017-12-20T04:46:10.349Z,5.90
2017-12-20T04:48:38.536Z,9.60
2017-12-20T04:51:06.651Z,5.75
2017-12-20T04:53:34.956Z,6.65
2017-12-20T04:56:03.027Z,6.47
2017-12-20T04:58:31.112Z,5.15
2017-12-20T05:01:00.015Z,5.20
2017-12-20T05:03:28.087Z,5.15
2017-12-20T05:05:56.158Z,5.57
2017-12-20T05:08:24.244Z,5.80
2017-12-20T05:10:52.329Z,7.00
2017-12-20T05:13:20.447Z,5.43
2017-12-20T05:15:49.325Z,6.00
2017-12-20T05:18:18.211Z,5.60
2017-12-20T05:20:46.331Z,4.43
2017-12-20T05:23:14.407Z,6.10
2017-12-20T05:25:42.488Z,6.95
2017-12-20T05:28:10.567Z,5.30
2017-12-20T05:30:38.698Z,5.82
2017-12-20T05:33:06.778Z,5.35
2017-12-20T05:35:34.870Z,6.22
2017-12-20T05:38:02.941Z,6.00
2017-12-20T05:40:31.027Z,6.20
2017-12-20T05:42:59.104Z,7.00
2017-12-20T05:45:27.193Z,6.18
2017-12-20T05:47:56.041Z,6.37
2017-12-20T05:50:24.163Z,6.65
2017-12-20T05:52:52.246Z,6.82
2017-12-20T05:55:20.326Z,7.53
2017-12-20T05:57:48.397Z,6.53
2017-12-20T06:00:16.528Z,6.70
2017-12-20T06:02:45.388Z,6.68
2017-12-20T06:05:13.553Z,8.23
2017-12-20T06:07:41.598Z,5.10
2017-12-20T06:10:09.782Z,4.93
2017-12-20T06:12:37.850Z,5.22
2017-12-20T06:15:05.932Z,6.07
2017-12-20T06:17:34.011Z,5.55
2017-12-20T06:20:02.106Z,6.00
2017-12-20T06:22:30.266Z,6.35
2017-12-20T06:24:58.339Z,5.55
2017-12-20T06:27:26.422Z,5.35
2017-12-20T06:29:55.267Z,5.65
2017-12-20T06:32:23.358Z,5.90
2017-12-20T06:34:51.444Z,6.43
2017-12-20T06:37:19.526Z,6.50
2017-12-20T06:39:47.658Z,9.15
2017-12-20T06:42:15.866Z,11.90
2017-12-20T06:44:44.713Z,8.35
2017-12-20T06:47:12.881Z,11.00
2017-12-20T06:49:40.973Z,11.10
2017-12-20T06:52:09.047Z,9.35
2017-12-20T06:54:37.132Z,9.60
2017-12-20T06:57:05.983Z,7.30
2017-12-20T06:59:34.123Z,6.87
2017-12-20T07:02:02.228Z,6.32
2017-12-20T07:04:30.326Z,14.85
2017-12-20T07:06:58.499Z,6.60
2017-12-20T07:09:28.197Z,8.00
2017-12-20T07:11:57.041Z,6.10
2017-12-20T07:14:25.148Z,6.00
2017-12-20T07:16:53.239Z,7.30
2017-12-20T07:19:21.314Z,6.43
2017-12-20T07:21:49.392Z,6.25
2017-12-20T07:24:18.256Z,7.82
2017-12-20T07:26:46.332Z,6.47
2017-12-20T07:29:14.406Z,5.90
2017-12-20T07:31:43.256Z,6.62
2017-12-20T07:34:11.328Z,7.62
2017-12-20T07:36:39.514Z,6.30
2017-12-20T07:39:07.795Z,6.35
2017-12-20T07:41:35.896Z,6.20
2017-12-20T07:44:04.767Z,7.07
2017-12-20T07:46:32.847Z,6.53
2017-12-20T07:49:01.697Z,6.40
2017-12-20T07:51:29.809Z,7.00
2017-12-20T07:53:57.863Z,9.55
2017-12-20T07:56:25.949Z,7.05
2017-12-20T07:58:54.844Z,6.80
2017-12-20T08:01:23.729Z,6.22
2017-12-20T08:03:51.780Z,7.70
2017-12-20T08:06:19.870Z,6.93
2017-12-20T08:08:48.702Z,8.00
2017-12-20T08:11:16.851Z,6.30
2017-12-20T08:13:44.893Z,7.85
2017-12-20T08:16:13.895Z,8.02
2017-12-20T08:18:41.964Z,8.00
2017-12-20T08:21:10.853Z,7.50
2017-12-20T08:23:38.939Z,7.07
2017-12-20T08:26:07.084Z,7.00
2017-12-20T08:28:35.174Z,7.97
2017-12-20T08:31:04.025Z,7.20
2017-12-20T08:33:32.095Z,6.40
2017-12-20T08:36:00.177Z,7.15
2017-12-20T08:38:29.043Z,6.37
2017-12-20T08:40:57.239Z,7.53
2017-12-20T08:43:25.329Z,7.68
2017-12-20T08:45:53.454Z,7.22
2017-12-20T08:48:21.527Z,7.30
2017-12-20T08:50:49.618Z,10.25
2017-12-20T08:53:18.469Z,7.95
2017-12-20T08:55:46.556Z,8.00
2017-12-20T08:58:14.710Z,7.15
2017-12-20T09:00:42.803Z,8.00
2017-12-20T09:03:11.000Z,8.15
2017-12-20T09:05:39.076Z,7.72
2017-12-20T09:08:07.172Z,8.73
2017-12-20T09:10:35.262Z,7.60
2017-12-20T09:13:03.344Z,7.95
2017-12-20T09:15:31.453Z,8.00
2017-12-20T09:18:00.295Z,7.10
2017-12-20T09:20:28.379Z,7.47
2017-12-20T09:22:56.485Z,8.40
2017-12-20T09:25:25.351Z,7.97
2017-12-20T09:27:53.411Z,8.68
2017-12-20T09:30:21.492Z,7.90
2017-12-20T09:32:49.576Z,7.70
2017-12-20T09:35:18.423Z,7.78
2017-12-20T09:37:46.562Z,8.55
2017-12-20T09:40:14.599Z,7.95
2017-12-20T09:42:43.460Z,9.10
2017-12-20T09:45:11.543Z,8.75
2017-12-20T09:47:39.626Z,8.65
2017-12-20T09:50:08.522Z,8.35
2017-12-20T09:52:36.611Z,8.60
2017-12-20T09:55:04.682Z,7.82
2017-12-20T09:57:32.772Z,9.77
2017-12-20T10:00:00.871Z,8.65
2017-12-20T10:02:28.959Z,10.00
2017-12-20T10:04:57.822Z,10.13
2017-12-20T10:07:25.907Z,9.35
2017-12-20T10:09:53.990Z,9.75
2017-12-20T10:12:22.838Z,9.68
2017-12-20T10:14:50.948Z,9.05
2017-12-20T10:17:19.799Z,9.93
2017-12-20T10:19:47.884Z,9.68
2017-12-20T10:22:15.995Z,11.95
2017-12-20T10:24:44.076Z,10.10
2017-12-20T10:27:12.168Z,9.45
2017-12-20T10:29:40.266Z,9.85
2017-12-20T10:32:08.365Z,9.77
2017-12-20T10:34:37.233Z,10.30
2017-12-20T10:37:05.338Z,11.40
2017-12-20T10:39:33.430Z,11.32
2017-12-20T10:42:01.539Z,14.57
2017-12-20T10:44:29.706Z,11.05
2017-12-20T10:46:57.795Z,10.45
2017-12-20T10:49:26.650Z,10.73
2017-12-20T10:51:54.751Z,11.35
2017-12-20T10:54:23.618Z,12.55
2017-12-20T10:56:51.723Z,12.75
2017-12-20T10:59:19.979Z,10.90
2017-12-20T11:01:49.579Z,12.75
2017-12-20T11:04:17.664Z,14.20
2017-12-20T11:06:46.525Z,14.18
2017-12-20T11:09:14.614Z,12.52
2017-12-20T11:11:43.499Z,13.27
2017-12-20T11:14:11.675Z,12.85
2017-12-20T11:16:40.050Z,12.95
2017-12-20T11:19:08.140Z,13.60
2017-12-20T11:21:36.231Z,13.18
2017-12-20T11:24:04.315Z,13.73
2017-12-20T11:26:32.537Z,14.75
2017-12-20T11:29:00.713Z,16.00
2017-12-20T11:31:29.567Z,14.90
2017-12-20T11:33:57.868Z,17.20
2017-12-20T11:36:25.957Z,16.45
2017-12-20T11:38:54.849Z,20.73
2017-12-20T11:41:23.626Z,12.75
2017-12-20T11:43:51.735Z,16.65
2017-12-20T11:46:19.825Z,20.77
2017-12-20T11:48:47.935Z,16.42
2017-12-20T11:51:16.024Z,14.77
2017-12-20T11:53:44.188Z,14.80
2017-12-20T11:56:12.310Z,16.37
2017-12-20T11:58:40.399Z,15.82
2017-12-20T12:01:08.507Z,13.77
2017-12-20T12:03:36.614Z,14.30
2017-12-20T12:06:04.691Z,15.00
2017-12-20T12:08:32.799Z,15.00
2017-12-20T12:11:00.895Z,15.53
2017-12-20T12:13:28.985Z,15.07
2017-12-20T12:15:57.135Z,15.07
2017-12-20T12:18:25.247Z,14.40
2017-12-20T12:20:53.342Z,15.18
2017-12-20T12:23:22.228Z,16.77
2017-12-20T12:25:50.319Z,13.40
2017-12-20T12:28:18.423Z,13.70
2017-12-20T12:30:46.647Z,15.95
2017-12-20T12:33:15.578Z,21.80
2017-12-20T12:35:43.669Z,17.53
2017-12-20T12:38:11.784Z,15.50
2017-12-20T12:40:40.660Z,14.65
2017-12-20T12:43:09.527Z,15.43
2017-12-20T12:45:37.642Z,16.02
2017-12-20T12:48:05.747Z,16.43
2017-12-20T12:50:33.911Z,16.90
2017-12-20T12:53:01.995Z,15.35
2017-12-20T12:55:30.127Z,13.88
2017-12-20T12:57:58.199Z,15.68
2017-12-20T13:00:26.303Z,15.83
2017-12-20T13:02:54.409Z,14.73
2017-12-20T13:05:22.504Z,14.90
2017-12-20T13:07:50.574Z,15.13
2017-12-20T13:10:18.706Z,15.18
2017-12-20T13:12:46.778Z,17.58
2017-12-20T13:15:15.711Z,16.20
2017-12-20T13:17:44.563Z,18.07
2017-12-20T13:20:12.669Z,16.23
2017-12-20T13:22:40.777Z,15.32
2017-12-20T13:25:08.972Z,16.52
2017-12-20T13:27:37.065Z,15.77
2017-12-20T13:30:05.927Z,15.00
2017-12-20T13:32:34.052Z,15.23
2017-12-20T13:35:02.859Z,16.27
2017-12-20T13:37:30.966Z,15.15
2017-12-20T13:39:59.128Z,14.95
2017-12-20T13:42:27.220Z,14.48
2017-12-20T13:44:56.196Z,17.55
2017-12-20T13:47:25.161Z,15.97
2017-12-20T13:49:53.803Z,16.10
2017-12-20T13:52:21.902Z,13.88
2017-12-20T13:54:49.994Z,14.30
2017-12-20T13:57:18.113Z,14.50
2017-12-20T13:59:46.228Z,16.50
2017-12-20T14:02:14.290Z,14.95
2017-12-20T14:04:42.404Z,15.30
2017-12-20T14:07:11.278Z,15.60
2017-12-20T14:09:39.364Z,16.52
2017-12-20T14:12:07.471Z,15.93
2017-12-20T14:14:35.688Z,24.45
2017-12-20T14:17:03.882Z,17.70
2017-12-20T14:19:32.846Z,19.48
2017-12-20T14:22:00.988Z,16.23
2017-12-20T14:24:29.208Z,17.43
2017-12-20T14:26:57.384Z,14.50
2017-12-20T14:29:25.488Z,16.87
2017-12-20T14:31:53.595Z,15.35
2017-12-20T14:34:21.704Z,16.25
2017-12-20T14:36:49.800Z,14.20
2017-12-20T14:39:17.900Z,16.70
2017-12-20T14:41:46.060Z,16.67
2017-12-20T14:44:14.161Z,16.15
2017-12-20T14:46:42.304Z,17.83
2017-12-20T14:49:10.412Z,16.63
2017-12-20T14:51:38.525Z,16.40
2017-12-20T14:54:06.636Z,15.63
2017-12-20T14:56:34.753Z,14.70
2017-12-20T14:59:02.899Z,15.83
2017-12-20T15:01:31.037Z,15.73
2017-12-20T15:03:59.502Z,14.52
2017-12-20T15:06:27.588Z,16.08
2017-12-20T15:08:55.787Z,14.73
2017-12-20T15:11:23.921Z,16.23
2017-12-20T15:13:52.106Z,13.80
2017-12-20T15:16:20.196Z,15.77
2017-12-20T15:18:48.639Z,16.65
2017-12-20T15:21:16.755Z,14.93
2017-12-20T15:23:45.036Z,14.57
2017-12-20T15:26:13.979Z,15.27
2017-12-20T15:28:42.834Z,16.98
2017-12-20T15:31:10.940Z,15.50
2017-12-20T15:33:39.926Z,16.10
2017-12-20T15:36:08.011Z,16.80
2017-12-20T15:38:36.268Z,17.60
2017-12-20T15:41:04.416Z,15.90
2017-12-20T15:43:32.622Z,17.23
2017-12-20T15:46:00.711Z,17.65
2017-12-20T15:48:28.823Z,19.73
2017-12-20T15:50:56.932Z,20.30
2017-12-20T15:53:25.793Z,21.20
2017-12-20T15:55:53.895Z,17.02
2017-12-20T15:58:22.774Z,20.90
2017-12-20T16:00:51.639Z,22.02
2017-12-20T16:03:19.735Z,19.65
2017-12-20T16:05:48.585Z,23.52
2017-12-20T16:08:16.706Z,17.87
2017-12-20T16:10:45.556Z,15.05
2017-12-20T16:13:13.690Z,18.17
2017-12-20T16:15:41.776Z,15.60
2017-12-20T16:18:09.855Z,21.30
2017-12-20T16:20:37.962Z,18.62
2017-12-20T16:23:06.839Z,15.77
2017-12-20T16:25:35.025Z,22.73
2017-12-20T16:28:03.879Z,18.08
2017-12-20T16:30:32.177Z,18.95
2017-12-20T16:33:00.268Z,16.25
2017-12-20T16:35:28.367Z,14.50
2017-12-20T16:37:56.465Z,14.60
2017-12-20T16:40:24.578Z,14.32
2017-12-20T16:42:53.443Z,17.17
2017-12-20T16:45:21.633Z,21.37
2017-12-20T16:47:50.475Z,17.05
2017-12-20T16:50:18.580Z,17.08
2017-12-20T16:52:47.435Z,14.85
2017-12-20T16:55:15.624Z,17.90
2017-12-20T16:57:45.228Z,18.83
2017-12-20T17:00:13.449Z,15.35
2017-12-20T17:02:41.505Z,15.95
2017-12-20T17:05:09.599Z,13.80
2017-12-20T17:07:37.691Z,15.30
2017-12-20T17:10:05.828Z,12.80
2017-12-20T17:12:34.654Z,13.23
2017-12-20T17:15:02.799Z,13.60
2017-12-20T17:17:30.888Z,14.50
2017-12-20T17:19:58.985Z,13.50
2017-12-20T17:22:28.579Z,15.63
2017-12-20T17:24:56.696Z,13.27
2017-12-20T17:27:24.770Z,13.90
2017-12-20T17:29:53.015Z,11.88
2017-12-20T17:32:21.077Z,12.70
2017-12-20T17:34:49.936Z,14.35
2017-12-20T17:37:18.055Z,14.40
2017-12-20T17:39:46.944Z,15.60
2017-12-20T17:42:15.065Z,15.17
2017-12-20T17:44:43.162Z,19.73
2017-12-20T17:47:11.263Z,19.58
2017-12-20T17:49:39.375Z,15.18
2017-12-20T17:52:07.545Z,15.50
2017-12-20T17:54:35.646Z,14.07
2017-12-20T17:57:03.730Z,16.80
2017-12-20T17:59:31.941Z,13.38
2017-12-20T18:02:00.026Z,14.40
2017-12-20T18:04:28.307Z,15.15
2017-12-20T18:06:56.391Z,15.90
2017-12-20T18:09:24.478Z,14.77
2017-12-20T18:11:52.626Z,14.00
2017-12-20T18:14:20.749Z,16.40
2017-12-20T18:16:48.872Z,14.23
2017-12-20T18:19:16.985Z,13.38
2017-12-20T18:21:45.835Z,13.13
2017-12-20T18:24:13.924Z,15.68
2017-12-20T18:26:42.787Z,12.95
2017-12-20T18:29:10.891Z,14.20
2017-12-20T18:31:39.792Z,14.07
2017-12-20T18:34:07.867Z,16.45
2017-12-20T18:36:36.021Z,16.25
2017-12-20T18:39:04.902Z,15.50
2017-12-20T18:41:33.849Z,18.45
2017-12-20T18:44:01.972Z,14.20
2017-12-20T18:46:30.186Z,15.30
2017-12-20T18:48:58.378Z,15.07
2017-12-20T18:51:26.476Z,12.60
2017-12-20T18:53:54.689Z,15.18
2017-12-20T18:56:22.898Z,14.15
2017-12-20T18:58:51.114Z,14.18
2017-12-20T19:01:20.006Z,17.92
2017-12-20T19:03:48.175Z,17.00
2017-12-20T19:06:16.301Z,16.87
2017-12-20T19:08:44.425Z,15.10
2017-12-20T19:11:12.561Z,18.33
2017-12-20T19:13:40.724Z,17.60
2017-12-20T19:16:08.821Z,15.00
2017-12-20T19:18:36.952Z,14.55
2017-12-20T19:21:05.090Z,17.50
2017-12-20T19:23:33.228Z,15.45
2017-12-20T19:26:01.367Z,17.60
2017-12-20T19:28:29.827Z,18.20
2017-12-20T19:30:57.966Z,20.30
2017-12-20T19:33:26.054Z,20.60
2017-12-20T19:35:54.164Z,17.23
2017-12-20T19:38:22.322Z,20.83
2017-12-20T19:40:50.527Z,18.85
2017-12-20T19:43:18.622Z,18.27
2017-12-20T19:45:46.812Z,21.48
2017-12-20T19:48:14.933Z,19.25
2017-12-20T19:50:43.078Z,18.40
2017-12-20T19:53:11.183Z,20.83
2017-12-20T19:55:39.310Z,19.12
2017-12-20T19:58:07.429Z,18.33
2017-12-20T20:00:36.335Z,17.85
2017-12-20T20:03:05.256Z,21.58
2017-12-20T20:05:33.459Z,18.35
2017-12-20T20:08:01.706Z,19.50
2017-12-20T20:10:29.892Z,17.10
2017-12-20T20:12:58.057Z,19.40
2017-12-20T20:15:26.278Z,24.63
2017-12-20T20:17:54.361Z,21.30
2017-12-20T20:20:23.246Z,20.02
2017-12-20T20:22:51.539Z,18.77
2017-12-20T20:25:19.729Z,18.92
2017-12-20T20:27:47.872Z,18.62
2017-12-20T20:30:16.013Z,22.42
2017-12-20T20:32:44.084Z,18.40
2017-12-20T20:35:12.276Z,18.70
2017-12-20T20:37:41.188Z,21.33
2017-12-20T20:40:09.316Z,20.02
2017-12-20T20:42:37.539Z,17.92
2017-12-20T20:45:06.399Z,18.62
2017-12-20T20:47:34.544Z,19.08
2017-12-20T20:50:02.634Z,20.40
2017-12-20T20:52:31.524Z,18.98
2017-12-20T20:55:00.448Z,20.62
2017-12-20T20:57:28.575Z,19.90
2017-12-20T20:59:58.336Z,20.30
2017-12-20T21:02:26.488Z,23.20
2017-12-20T21:04:54.656Z,18.90
2017-12-20T21:07:22.771Z,24.33
2017-12-20T21:09:50.934Z,20.67
2017-12-20T21:12:19.054Z,20.52
2017-12-20T21:14:47.264Z,20.83
2017-12-20T21:17:15.390Z,20.90
2017-12-20T21:19:43.525Z,24.73
2017-12-20T21:22:11.670Z,19.62
2017-12-20T21:24:39.790Z,21.17
2017-12-20T21:27:08.696Z,20.20
2017-12-20T21:29:37.662Z,21.05
2017-12-20T21:32:06.571Z,20.83
2017-12-20T21:34:34.772Z,18.90
2017-12-20T21:37:02.935Z,21.35
2017-12-20T21:39:31.025Z,20.62
2017-12-20T21:41:59.223Z,19.12
2017-12-20T21:44:27.455Z,19.15
2017-12-20T21:46:55.685Z,19.00
2017-12-20T21:49:23.851Z,21.95
2017-12-20T21:51:52.063Z,18.73
2017-12-20T21:54:20.249Z,18.55
2017-12-20T21:56:48.471Z,20.88
2017-12-20T21:59:17.356Z,19.73
2017-12-20T22:01:45.475Z,24.30
2017-12-20T22:04:13.605Z,20.75
2017-12-20T22:06:41.742Z,19.75
2017-12-20T22:09:09.913Z,19.70
2017-12-20T22:11:38.067Z,18.87
2017-12-20T22:14:06.303Z,19.20
2017-12-20T22:16:35.229Z,28.73
2017-12-20T22:19:03.353Z,20.95
2017-12-20T22:21:32.292Z,19.15
2017-12-20T22:24:00.406Z,24.27
2017-12-20T22:26:28.534Z,20.30
2017-12-20T22:28:56.675Z,19.08
2017-12-20T22:31:25.582Z,19.12
2017-12-20T22:33:53.742Z,18.73
2017-12-20T22:36:21.874Z,19.80
2017-12-20T22:38:49.996Z,20.48
2017-12-20T22:41:18.240Z,21.25
2017-12-20T22:43:47.118Z,20.10
2017-12-20T22:46:16.015Z,21.65
2017-12-20T22:48:44.895Z,23.60
2017-12-20T22:51:13.190Z,22.80
2017-12-20T22:53:41.393Z,23.48
2017-12-20T22:56:09.544Z,19.73
2017-12-20T22:58:37.631Z,23.17
2017-12-20T23:01:05.808Z,22.77
2017-12-20T23:03:34.054Z,26.48
2017-12-20T23:06:02.398Z,26.33
2017-12-20T23:08:30.571Z,24.27
2017-12-20T23:10:59.473Z,20.50
2017-12-20T23:13:28.437Z,21.30
2017-12-20T23:15:56.554Z,20.42
2017-12-20T23:18:24.686Z,21.33
2017-12-20T23:20:52.870Z,21.40
2017-12-20T23:23:20.997Z,19.77
2017-12-20T23:25:49.101Z,26.67
2017-12-20T23:28:17.167Z,22.65
2017-12-20T23:30:46.068Z,19.83
2017-12-20T23:33:14.992Z,20.55
2017-12-20T23:35:43.064Z,22.15
2017-12-20T23:38:11.208Z,19.92
2017-12-20T23:40:40.219Z,24.30
2017-12-20T23:43:08.301Z,29.70
2017-12-20T23:45:36.437Z,26.80
2017-12-20T23:48:05.292Z,23.77
2017-12-20T23:50:34.212Z,22.95
2017-12-20T23:53:03.107Z,20.67
2017-12-20T23:55:31.220Z,23.83
2017-12-20T23:57:59.343Z,25.42
